sensor_id;sensor_type;location;lat;lon;timestamp;P1;durP1;ratioP1;P2;durP2;ratioP2
2868;SDS011;1442;47.448;8.582;2023-03-23T00:01:46;5.35;;;2.80;;
2868;SDS011;1442;47.448;8.582;2023-03-23T00:04:14;8.75;;;2.83;;
2868;SDS011;1442;47.448;8.582;2023-03-23T00:06:42;4.30;;;2.75;;
2868;SDS011;1442;47.448;8.582;2023-03-23T00:09:12;4.22;;;2.70;;
2868;SDS011;1442;47.448;8.582;2023-03-23T00:11:40;3.95;;;2.83;;
2868;SDS011;1442;47.448;8.582;2023-03-23T00:14:07;4.28;;;2.90;;
2868;SDS011;1442;47.448;8.582;2023-03-23T00:16:41;7.15;;;3.08;;
2868;SDS011;1442;47.448;8.582;2023-03-23T00:19:10;6.88;;;2.53;;
2868;SDS011;1442;47.448;8.582;2023-03-23T00:21:38;5.53;;;2.30;;
2868;SDS011;1442;47.448;8.582;2023-03-23T00:24:07;4.35;;;2.58;;
2868;SDS011;1442;47.448;8.582;2023-03-23T00:26:37;4.25;;;2.47;;
2868;SDS011;1442;47.448;8.582;2023-03-23T00:29:06;2.85;;;2.28;;
2868;SDS011;1442;47.448;8.582;2023-03-23T00:31:33;4.13;;;2.22;;
2868;SDS011;1442;47.448;8.582;2023-03-23T00:34:01;6.63;;;2.50;;
2868;SDS011;1442;47.448;8.582;2023-03-23T00:36:30;3.38;;;2.42;;
2868;SDS011;1442;47.448;8.582;2023-03-23T00:38:58;4.15;;;2.63;;
2868;SDS011;1442;47.448;8.582;2023-03-23T00:41:26;4.65;;;3.22;;
2868;SDS011;1442;47.448;8.582;2023-03-23T00:43:55;4.35;;;2.70;;
2868;SDS011;1442;47.448;8.582;2023-03-23T00:46:25;4.27;;;2.67;;
2868;SDS011;1442;47.448;8.582;2023-03-23T00:48:53;3.45;;;2.38;;
2868;SDS011;1442;47.448;8.582;2023-03-23T00:51:21;7.88;;;2.92;;
2868;SDS011;1442;47.448;8.582;2023-03-23T00:53:49;4.03;;;2.42;;
2868;SDS011;1442;47.448;8.582;2023-03-23T00:56:16;3.13;;;2.67;;
2868;SDS011;1442;47.448;8.582;2023-03-23T00:58:43;6.93;;;2.88;;
2868;SDS011;1442;47.448;8.582;2023-03-23T01:01:12;3.78;;;2.72;;
2868;SDS011;1442;47.448;8.582;2023-03-23T01:03:39;5.60;;;2.90;;
2868;SDS011;1442;47.448;8.582;2023-03-23T01:06:07;6.80;;;3.05;;
2868;SDS011;1442;47.448;8.582;2023-03-23T01:08:37;4.47;;;2.50;;
2868;SDS011;1442;47.448;8.582;2023-03-23T01:11:11;5.38;;;3.05;;
2868;SDS011;1442;47.448;8.582;2023-03-23T01:13:38;5.03;;;2.53;;
2868;SDS011;1442;47.448;8.582;2023-03-23T01:16:06;5.53;;;3.05;;
2868;SDS011;1442;47.448;8.582;2023-03-23T01:18:34;4.57;;;3.00;;
2868;SDS011;1442;47.448;8.582;2023-03-23T01:21:03;5.43;;;2.72;;
2868;SDS011;1442;47.448;8.582;2023-03-23T01:23:31;4.65;;;2.70;;
2868;SDS011;1442;47.448;8.582;2023-03-23T01:26:01;3.78;;;3.00;;
2868;SDS011;1442;47.448;8.582;2023-03-23T01:28:29;4.90;;;2.50;;
2868;SDS011;1442;47.448;8.582;2023-03-23T01:30:58;4.53;;;2.78;;
2868;SDS011;1442;47.448;8.582;2023-03-23T01:33:26;3.90;;;2.78;;
2868;SDS011;1442;47.448;8.582;2023-03-23T01:35:54;3.28;;;2.55;;
2868;SDS011;1442;47.448;8.582;2023-03-23T01:38:21;3.88;;;2.20;;
2868;SDS011;1442;47.448;8.582;2023-03-23T01:40:48;6.32;;;2.45;;
2868;SDS011;1442;47.448;8.582;2023-03-23T01:43:16;4.97;;;2.25;;
2868;SDS011;1442;47.448;8.582;2023-03-23T01:45:43;3.45;;;2.17;;
2868;SDS011;1442;47.448;8.582;2023-03-23T01:48:12;5.22;;;2.42;;
2868;SDS011;1442;47.448;8.582;2023-03-23T01:50:43;7.63;;;2.83;;
2868;SDS011;1442;47.448;8.582;2023-03-23T01:53:13;5.43;;;2.80;;
2868;SDS011;1442;47.448;8.582;2023-03-23T01:55:41;5.00;;;2.90;;
2868;SDS011;1442;47.448;8.582;2023-03-23T01:58:09;4.05;;;3.00;;
2868;SDS011;1442;47.448;8.582;2023-03-23T02:00:37;5.18;;;3.03;;
2868;SDS011;1442;47.448;8.582;2023-03-23T02:03:07;5.97;;;2.90;;
2868;SDS011;1442;47.448;8.582;2023-03-23T02:05:39;4.45;;;2.90;;
2868;SDS011;1442;47.448;8.582;2023-03-23T02:08:07;4.82;;;2.67;;
2868;SDS011;1442;47.448;8.582;2023-03-23T02:10:36;11.30;;;2.97;;
2868;SDS011;1442;47.448;8.582;2023-03-23T02:13:04;3.90;;;2.47;;
2868;SDS011;1442;47.448;8.582;2023-03-23T02:15:33;3.85;;;2.70;;
2868;SDS011;1442;47.448;8.582;2023-03-23T02:18:03;3.80;;;2.65;;
2868;SDS011;1442;47.448;8.582;2023-03-23T02:20:38;4.90;;;2.72;;
2868;SDS011;1442;47.448;8.582;2023-03-23T02:23:08;4.70;;;2.85;;
2868;SDS011;1442;47.448;8.582;2023-03-23T02:26:01;6.40;;;2.80;;
2868;SDS011;1442;47.448;8.582;2023-03-23T02:28:41;5.55;;;3.17;;
2868;SDS011;1442;47.448;8.582;2023-03-23T02:31:18;4.80;;;3.30;;
2868;SDS011;1442;47.448;8.582;2023-03-23T02:33:50;5.63;;;2.85;;
2868;SDS011;1442;47.448;8.582;2023-03-23T02:36:22;3.75;;;2.63;;
2868;SDS011;1442;47.448;8.582;2023-03-23T02:38:54;4.82;;;2.90;;
2868;SDS011;1442;47.448;8.582;2023-03-23T02:41:22;4.33;;;2.77;;
2868;SDS011;1442;47.448;8.582;2023-03-23T02:43:51;3.85;;;2.53;;
2868;SDS011;1442;47.448;8.582;2023-03-23T02:46:18;5.03;;;2.58;;
2868;SDS011;1442;47.448;8.582;2023-03-23T02:48:47;5.68;;;2.65;;
2868;SDS011;1442;47.448;8.582;2023-03-23T02:51:18;4.35;;;2.60;;
2868;SDS011;1442;47.448;8.582;2023-03-23T02:53:46;3.47;;;2.55;;
2868;SDS011;1442;47.448;8.582;2023-03-23T02:56:14;6.15;;;3.30;;
2868;SDS011;1442;47.448;8.582;2023-03-23T02:58:41;5.68;;;2.70;;
2868;SDS011;1442;47.448;8.582;2023-03-23T03:01:16;4.10;;;2.50;;
2868;SDS011;1442;47.448;8.582;2023-03-23T03:04:03;4.07;;;2.80;;
2868;SDS011;1442;47.448;8.582;2023-03-23T03:06:33;8.68;;;2.60;;
2868;SDS011;1442;47.448;8.582;2023-03-23T03:09:05;3.88;;;2.78;;
2868;SDS011;1442;47.448;8.582;2023-03-23T03:11:34;4.50;;;2.33;;
2868;SDS011;1442;47.448;8.582;2023-03-23T03:14:03;5.95;;;2.40;;
2868;SDS011;1442;47.448;8.582;2023-03-23T03:16:32;3.97;;;2.80;;
2868;SDS011;1442;47.448;8.582;2023-03-23T03:19:02;2.92;;;2.50;;
2868;SDS011;1442;47.448;8.582;2023-03-23T03:21:30;8.90;;;2.63;;
2868;SDS011;1442;47.448;8.582;2023-03-23T03:24:00;3.78;;;2.60;;
2868;SDS011;1442;47.448;8.582;2023-03-23T03:26:28;4.75;;;2.92;;
2868;SDS011;1442;47.448;8.582;2023-03-23T03:28:56;2.42;;;2.20;;
2868;SDS011;1442;47.448;8.582;2023-03-23T03:31:23;4.45;;;2.33;;
2868;SDS011;1442;47.448;8.582;2023-03-23T03:33:53;2.63;;;2.10;;
2868;SDS011;1442;47.448;8.582;2023-03-23T03:36:21;2.97;;;2.53;;
2868;SDS011;1442;47.448;8.582;2023-03-23T03:38:50;3.03;;;2.20;;
2868;SDS011;1442;47.448;8.582;2023-03-23T03:41:19;7.78;;;2.17;;
2868;SDS011;1442;47.448;8.582;2023-03-23T03:43:47;4.32;;;1.98;;
2868;SDS011;1442;47.448;8.582;2023-03-23T03:46:14;2.72;;;1.85;;
2868;SDS011;1442;47.448;8.582;2023-03-23T03:48:41;2.30;;;1.67;;
2868;SDS011;1442;47.448;8.582;2023-03-23T03:51:08;2.20;;;1.80;;
2868;SDS011;1442;47.448;8.582;2023-03-23T03:53:35;4.55;;;2.35;;
2868;SDS011;1442;47.448;8.582;2023-03-23T03:56:03;4.93;;;2.28;;
2868;SDS011;1442;47.448;8.582;2023-03-23T03:58:31;2.60;;;1.83;;
2868;SDS011;1442;47.448;8.582;2023-03-23T04:01:01;3.13;;;1.70;;
2868;SDS011;1442;47.448;8.582;2023-03-23T04:03:28;4.38;;;2.10;;
2868;SDS011;1442;47.448;8.582;2023-03-23T04:05:55;2.83;;;1.85;;
2868;SDS011;1442;47.448;8.582;2023-03-23T04:08:24;4.28;;;2.28;;
2868;SDS011;1442;47.448;8.582;2023-03-23T04:10:52;2.90;;;2.22;;
2868;SDS011;1442;47.448;8.582;2023-03-23T04:13:20;3.88;;;2.28;;
2868;SDS011;1442;47.448;8.582;2023-03-23T04:15:48;3.22;;;2.25;;
2868;SDS011;1442;47.448;8.582;2023-03-23T04:18:16;4.78;;;2.15;;
2868;SDS011;1442;47.448;8.582;2023-03-23T04:20:44;3.85;;;2.47;;
2868;SDS011;1442;47.448;8.582;2023-03-23T04:23:13;2.63;;;2.30;;
2868;SDS011;1442;47.448;8.582;2023-03-23T04:25:44;2.80;;;2.25;;
2868;SDS011;1442;47.448;8.582;2023-03-23T04:28:12;3.42;;;2.20;;
2868;SDS011;1442;47.448;8.582;2023-03-23T04:30:39;3.38;;;2.00;;
2868;SDS011;1442;47.448;8.582;2023-03-23T04:33:09;4.63;;;2.10;;
2868;SDS011;1442;47.448;8.582;2023-03-23T04:35:40;3.63;;;2.20;;
2868;SDS011;1442;47.448;8.582;2023-03-23T04:38:07;11.38;;;2.20;;
2868;SDS011;1442;47.448;8.582;2023-03-23T04:40:35;4.05;;;2.67;;
2868;SDS011;1442;47.448;8.582;2023-03-23T04:43:03;2.97;;;2.33;;
2868;SDS011;1442;47.448;8.582;2023-03-23T04:45:31;2.55;;;2.13;;
2868;SDS011;1442;47.448;8.582;2023-03-23T04:47:58;5.88;;;2.60;;
2868;SDS011;1442;47.448;8.582;2023-03-23T04:50:28;3.25;;;2.25;;
2868;SDS011;1442;47.448;8.582;2023-03-23T04:52:55;3.67;;;2.45;;
2868;SDS011;1442;47.448;8.582;2023-03-23T04:55:23;7.32;;;2.28;;
2868;SDS011;1442;47.448;8.582;2023-03-23T04:57:51;2.72;;;2.38;;
2868;SDS011;1442;47.448;8.582;2023-03-23T05:00:19;2.83;;;2.33;;
2868;SDS011;1442;47.448;8.582;2023-03-23T05:02:47;5.20;;;2.33;;
2868;SDS011;1442;47.448;8.582;2023-03-23T05:05:16;3.42;;;2.40;;
2868;SDS011;1442;47.448;8.582;2023-03-23T05:07:45;6.28;;;2.70;;
2868;SDS011;1442;47.448;8.582;2023-03-23T05:10:12;5.35;;;2.17;;
2868;SDS011;1442;47.448;8.582;2023-03-23T05:12:40;5.80;;;3.03;;
2868;SDS011;1442;47.448;8.582;2023-03-23T05:15:08;3.55;;;2.17;;
2868;SDS011;1442;47.448;8.582;2023-03-23T05:17:35;4.70;;;2.75;;
2868;SDS011;1442;47.448;8.582;2023-03-23T05:20:04;4.82;;;2.20;;
2868;SDS011;1442;47.448;8.582;2023-03-23T05:22:33;9.80;;;2.22;;
2868;SDS011;1442;47.448;8.582;2023-03-23T05:25:02;3.55;;;2.00;;
2868;SDS011;1442;47.448;8.582;2023-03-23T05:27:30;4.95;;;2.63;;
2868;SDS011;1442;47.448;8.582;2023-03-23T05:29:57;7.93;;;2.10;;
2868;SDS011;1442;47.448;8.582;2023-03-23T05:32:25;5.47;;;2.40;;
2868;SDS011;1442;47.448;8.582;2023-03-23T05:34:54;5.80;;;2.72;;
2868;SDS011;1442;47.448;8.582;2023-03-23T05:37:22;2.53;;;2.28;;
2868;SDS011;1442;47.448;8.582;2023-03-23T05:39:49;3.78;;;2.60;;
2868;SDS011;1442;47.448;8.582;2023-03-23T05:42:22;6.93;;;2.40;;
2868;SDS011;1442;47.448;8.582;2023-03-23T05:44:50;5.32;;;2.50;;
2868;SDS011;1442;47.448;8.582;2023-03-23T05:47:18;5.97;;;2.13;;
2868;SDS011;1442;47.448;8.582;2023-03-23T05:49:45;3.75;;;2.45;;
2868;SDS011;1442;47.448;8.582;2023-03-23T05:52:12;6.38;;;2.25;;
2868;SDS011;1442;47.448;8.582;2023-03-23T05:54:39;6.05;;;2.58;;
2868;SDS011;1442;47.448;8.582;2023-03-23T05:57:06;6.15;;;2.28;;
2868;SDS011;1442;47.448;8.582;2023-03-23T05:59:35;6.53;;;2.65;;
2868;SDS011;1442;47.448;8.582;2023-03-23T06:02:02;11.65;;;2.25;;
2868;SDS011;1442;47.448;8.582;2023-03-23T06:04:30;8.23;;;1.85;;
2868;SDS011;1442;47.448;8.582;2023-03-23T06:06:58;4.78;;;2.30;;
2868;SDS011;1442;47.448;8.582;2023-03-23T06:09:25;2.45;;;2.25;;
2868;SDS011;1442;47.448;8.582;2023-03-23T06:11:53;7.15;;;1.92;;
2868;SDS011;1442;47.448;8.582;2023-03-23T06:14:20;3.58;;;1.85;;
2868;SDS011;1442;47.448;8.582;2023-03-23T06:16:48;1.48;;;1.38;;
2868;SDS011;1442;47.448;8.582;2023-03-23T06:19:16;3.20;;;1.98;;
2868;SDS011;1442;47.448;8.582;2023-03-23T06:21:43;8.75;;;1.73;;
2868;SDS011;1442;47.448;8.582;2023-03-23T06:24:10;4.60;;;2.00;;
2868;SDS011;1442;47.448;8.582;2023-03-23T06:26:38;1.85;;;1.60;;
2868;SDS011;1442;47.448;8.582;2023-03-23T06:29:07;3.13;;;1.60;;
2868;SDS011;1442;47.448;8.582;2023-03-23T06:31:37;2.42;;;1.75;;
2868;SDS011;1442;47.448;8.582;2023-03-23T06:34:06;3.67;;;1.83;;
2868;SDS011;1442;47.448;8.582;2023-03-23T06:36:33;2.20;;;1.67;;
2868;SDS011;1442;47.448;8.582;2023-03-23T06:39:01;2.22;;;1.70;;
2868;SDS011;1442;47.448;8.582;2023-03-23T06:41:29;5.65;;;2.03;;
2868;SDS011;1442;47.448;8.582;2023-03-23T06:43:56;3.25;;;1.77;;
2868;SDS011;1442;47.448;8.582;2023-03-23T06:46:23;4.13;;;1.90;;
2868;SDS011;1442;47.448;8.582;2023-03-23T06:48:50;3.55;;;2.13;;
2868;SDS011;1442;47.448;8.582;2023-03-23T06:51:19;3.17;;;1.80;;
2868;SDS011;1442;47.448;8.582;2023-03-23T06:53:46;7.28;;;1.92;;
2868;SDS011;1442;47.448;8.582;2023-03-23T06:56:13;4.13;;;1.73;;
2868;SDS011;1442;47.448;8.582;2023-03-23T06:58:41;3.13;;;2.25;;
2868;SDS011;1442;47.448;8.582;2023-03-23T07:01:10;4.47;;;2.00;;
2868;SDS011;1442;47.448;8.582;2023-03-23T07:03:37;5.60;;;1.85;;
2868;SDS011;1442;47.448;8.582;2023-03-23T07:06:06;3.53;;;1.80;;
2868;SDS011;1442;47.448;8.582;2023-03-23T07:08:34;4.72;;;1.80;;
2868;SDS011;1442;47.448;8.582;2023-03-23T07:11:02;11.85;;;2.10;;
2868;SDS011;1442;47.448;8.582;2023-03-23T07:13:30;4.68;;;1.77;;
2868;SDS011;1442;47.448;8.582;2023-03-23T07:15:57;2.58;;;1.63;;
2868;SDS011;1442;47.448;8.582;2023-03-23T07:18:24;3.65;;;1.65;;
2868;SDS011;1442;47.448;8.582;2023-03-23T07:20:52;9.10;;;1.85;;
2868;SDS011;1442;47.448;8.582;2023-03-23T07:23:19;2.80;;;1.50;;
2868;SDS011;1442;47.448;8.582;2023-03-23T07:25:48;3.00;;;1.70;;
2868;SDS011;1442;47.448;8.582;2023-03-23T07:28:15;6.22;;;1.60;;
2868;SDS011;1442;47.448;8.582;2023-03-23T07:30:43;1.80;;;1.60;;
2868;SDS011;1442;47.448;8.582;2023-03-23T07:33:10;4.72;;;2.90;;
2868;SDS011;1442;47.448;8.582;2023-03-23T07:35:38;5.57;;;3.03;;
2868;SDS011;1442;47.448;8.582;2023-03-23T07:38:06;5.28;;;2.53;;
2868;SDS011;1442;47.448;8.582;2023-03-23T07:40:33;5.65;;;2.47;;
2868;SDS011;1442;47.448;8.582;2023-03-23T07:43:03;3.50;;;1.90;;
2868;SDS011;1442;47.448;8.582;2023-03-23T07:45:30;2.95;;;1.88;;
2868;SDS011;1442;47.448;8.582;2023-03-23T07:47:58;2.17;;;1.50;;
2868;SDS011;1442;47.448;8.582;2023-03-23T07:50:26;3.90;;;2.45;;
2868;SDS011;1442;47.448;8.582;2023-03-23T07:52:54;2.45;;;2.05;;
2868;SDS011;1442;47.448;8.582;2023-03-23T07:55:21;4.72;;;1.58;;
2868;SDS011;1442;47.448;8.582;2023-03-23T07:57:50;5.13;;;2.20;;
2868;SDS011;1442;47.448;8.582;2023-03-23T08:00:19;2.75;;;1.98;;
2868;SDS011;1442;47.448;8.582;2023-03-23T08:02:49;5.88;;;1.77;;
2868;SDS011;1442;47.448;8.582;2023-03-23T08:05:16;5.20;;;2.10;;
2868;SDS011;1442;47.448;8.582;2023-03-23T08:07:43;3.17;;;1.75;;
2868;SDS011;1442;47.448;8.582;2023-03-23T08:10:11;4.57;;;2.13;;
2868;SDS011;1442;47.448;8.582;2023-03-23T08:12:40;6.70;;;2.22;;
2868;SDS011;1442;47.448;8.582;2023-03-23T08:15:08;7.53;;;1.98;;
2868;SDS011;1442;47.448;8.582;2023-03-23T08:17:39;4.72;;;1.80;;
2868;SDS011;1442;47.448;8.582;2023-03-23T08:20:07;5.20;;;1.77;;
2868;SDS011;1442;47.448;8.582;2023-03-23T08:22:37;3.85;;;1.90;;
2868;SDS011;1442;47.448;8.582;2023-03-23T08:25:05;2.85;;;2.00;;
2868;SDS011;1442;47.448;8.582;2023-03-23T08:27:33;3.05;;;1.70;;
2868;SDS011;1442;47.448;8.582;2023-03-23T08:30:01;2.65;;;1.80;;
2868;SDS011;1442;47.448;8.582;2023-03-23T08:32:28;2.47;;;1.63;;
2868;SDS011;1442;47.448;8.582;2023-03-23T08:34:57;3.58;;;1.70;;
2868;SDS011;1442;47.448;8.582;2023-03-23T08:37:25;5.53;;;1.67;;
2868;SDS011;1442;47.448;8.582;2023-03-23T08:39:52;2.83;;;1.70;;
2868;SDS011;1442;47.448;8.582;2023-03-23T08:42:19;3.42;;;1.40;;
2868;SDS011;1442;47.448;8.582;2023-03-23T08:44:47;3.17;;;1.60;;
2868;SDS011;1442;47.448;8.582;2023-03-23T08:47:14;3.00;;;1.67;;
2868;SDS011;1442;47.448;8.582;2023-03-23T08:49:42;2.85;;;1.77;;
2868;SDS011;1442;47.448;8.582;2023-03-23T08:52:11;5.38;;;1.70;;
2868;SDS011;1442;47.448;8.582;2023-03-23T08:54:38;7.20;;;1.90;;
2868;SDS011;1442;47.448;8.582;2023-03-23T08:57:06;4.18;;;2.00;;
2868;SDS011;1442;47.448;8.582;2023-03-23T08:59:34;4.32;;;2.00;;
2868;SDS011;1442;47.448;8.582;2023-03-23T09:02:01;6.53;;;2.05;;
2868;SDS011;1442;47.448;8.582;2023-03-23T09:04:28;5.00;;;1.70;;
2868;SDS011;1442;47.448;8.582;2023-03-23T09:06:55;3.35;;;1.35;;
2868;SDS011;1442;47.448;8.582;2023-03-23T09:09:24;6.25;;;1.40;;
2868;SDS011;1442;47.448;8.582;2023-03-23T09:11:52;1.98;;;1.50;;
2868;SDS011;1442;47.448;8.582;2023-03-23T09:14:20;1.80;;;1.40;;
2868;SDS011;1442;47.448;8.582;2023-03-23T09:16:47;3.70;;;1.50;;
2868;SDS011;1442;47.448;8.582;2023-03-23T09:19:14;2.28;;;1.70;;
2868;SDS011;1442;47.448;8.582;2023-03-23T09:21:42;2.65;;;1.63;;
2868;SDS011;1442;47.448;8.582;2023-03-23T09:24:10;3.88;;;1.90;;
2868;SDS011;1442;47.448;8.582;2023-03-23T09:26:39;4.45;;;1.67;;
2868;SDS011;1442;47.448;8.582;2023-03-23T09:29:06;3.03;;;1.15;;
2868;SDS011;1442;47.448;8.582;2023-03-23T09:31:33;4.53;;;1.55;;
2868;SDS011;1442;47.448;8.582;2023-03-23T09:34:02;3.65;;;1.58;;
2868;SDS011;1442;47.448;8.582;2023-03-23T09:36:29;3.28;;;1.50;;
2868;SDS011;1442;47.448;8.582;2023-03-23T09:38:57;4.15;;;1.50;;
2868;SDS011;1442;47.448;8.582;2023-03-23T09:41:31;3.95;;;1.40;;
2868;SDS011;1442;47.448;8.582;2023-03-23T09:44:03;5.45;;;1.30;;
2868;SDS011;1442;47.448;8.582;2023-03-23T09:46:35;6.82;;;1.50;;
2868;SDS011;1442;47.448;8.582;2023-03-23T09:49:07;4.07;;;1.42;;
2868;SDS011;1442;47.448;8.582;2023-03-23T09:51:39;2.10;;;1.40;;
2868;SDS011;1442;47.448;8.582;2023-03-23T09:54:10;3.88;;;1.48;;
2868;SDS011;1442;47.448;8.582;2023-03-23T09:56:38;2.33;;;1.63;;
2868;SDS011;1442;47.448;8.582;2023-03-23T09:59:09;1.75;;;1.45;;
2868;SDS011;1442;47.448;8.582;2023-03-23T10:01:39;4.28;;;1.60;;
2868;SDS011;1442;47.448;8.582;2023-03-23T10:04:10;2.00;;;1.60;;
2868;SDS011;1442;47.448;8.582;2023-03-23T10:06:40;3.28;;;1.73;;
2868;SDS011;1442;47.448;8.582;2023-03-23T10:09:08;4.10;;;1.65;;
2868;SDS011;1442;47.448;8.582;2023-03-23T10:11:45;2.00;;;1.80;;
2868;SDS011;1442;47.448;8.582;2023-03-23T10:14:18;4.22;;;2.03;;
2868;SDS011;1442;47.448;8.582;2023-03-23T10:16:49;3.17;;;1.83;;
2868;SDS011;1442;47.448;8.582;2023-03-23T10:19:23;3.55;;;2.00;;
2868;SDS011;1442;47.448;8.582;2023-03-23T10:21:52;3.95;;;2.10;;
2868;SDS011;1442;47.448;8.582;2023-03-23T10:24:20;4.35;;;1.85;;
2868;SDS011;1442;47.448;8.582;2023-03-23T10:26:51;7.70;;;1.85;;
2868;SDS011;1442;47.448;8.582;2023-03-23T10:29:24;4.35;;;1.77;;
2868;SDS011;1442;47.448;8.582;2023-03-23T10:31:52;4.28;;;2.17;;
2868;SDS011;1442;47.448;8.582;2023-03-23T10:34:27;3.08;;;1.88;;
2868;SDS011;1442;47.448;8.582;2023-03-23T10:36:59;3.60;;;1.80;;
2868;SDS011;1442;47.448;8.582;2023-03-23T10:39:29;4.30;;;1.63;;
2868;SDS011;1442;47.448;8.582;2023-03-23T10:41:56;2.05;;;1.60;;
2868;SDS011;1442;47.448;8.582;2023-03-23T10:44:33;5.63;;;1.75;;
2868;SDS011;1442;47.448;8.582;2023-03-23T10:47:01;2.72;;;1.80;;
2868;SDS011;1442;47.448;8.582;2023-03-23T10:49:32;3.60;;;1.50;;
2868;SDS011;1442;47.448;8.582;2023-03-23T10:52:03;3.30;;;1.92;;
2868;SDS011;1442;47.448;8.582;2023-03-23T10:54:35;2.83;;;1.63;;
2868;SDS011;1442;47.448;8.582;2023-03-23T10:57:11;4.57;;;1.30;;
2868;SDS011;1442;47.448;8.582;2023-03-23T10:59:41;13.25;;;6.68;;
2868;SDS011;1442;47.448;8.582;2023-03-23T11:02:12;7.78;;;4.38;;
2868;SDS011;1442;47.448;8.582;2023-03-23T11:04:44;6.95;;;3.08;;
2868;SDS011;1442;47.448;8.582;2023-03-23T11:07:15;7.72;;;2.60;;
2868;SDS011;1442;47.448;8.582;2023-03-23T11:09:51;3.53;;;1.98;;
2868;SDS011;1442;47.448;8.582;2023-03-23T11:12:18;3.60;;;1.77;;
2868;SDS011;1442;47.448;8.582;2023-03-23T11:14:49;7.28;;;1.85;;
2868;SDS011;1442;47.448;8.582;2023-03-23T11:17:20;5.82;;;2.17;;
2868;SDS011;1442;47.448;8.582;2023-03-23T11:19:48;7.10;;;1.92;;
2868;SDS011;1442;47.448;8.582;2023-03-23T11:22:16;2.05;;;1.70;;
2868;SDS011;1442;47.448;8.582;2023-03-23T11:24:45;3.45;;;1.98;;
2868;SDS011;1442;47.448;8.582;2023-03-23T11:27:13;3.90;;;2.08;;
2868;SDS011;1442;47.448;8.582;2023-03-23T11:29:47;3.28;;;1.83;;
2868;SDS011;1442;47.448;8.582;2023-03-23T11:32:18;3.10;;;1.58;;
2868;SDS011;1442;47.448;8.582;2023-03-23T11:34:47;6.03;;;1.77;;
2868;SDS011;1442;47.448;8.582;2023-03-23T11:37:17;2.67;;;1.42;;
2868;SDS011;1442;47.448;8.582;2023-03-23T11:39:46;2.95;;;1.70;;
2868;SDS011;1442;47.448;8.582;2023-03-23T11:42:18;1.80;;;1.30;;
2868;SDS011;1442;47.448;8.582;2023-03-23T11:44:46;5.60;;;1.58;;
2868;SDS011;1442;47.448;8.582;2023-03-23T11:47:16;1.70;;;1.30;;
2868;SDS011;1442;47.448;8.582;2023-03-23T11:49:50;4.60;;;2.40;;
2868;SDS011;1442;47.448;8.582;2023-03-23T11:52:21;3.03;;;1.92;;
2868;SDS011;1442;47.448;8.582;2023-03-23T11:54:52;3.05;;;2.10;;
2868;SDS011;1442;47.448;8.582;2023-03-23T11:57:20;6.43;;;2.28;;
2868;SDS011;1442;47.448;8.582;2023-03-23T11:59:49;3.88;;;2.10;;
2868;SDS011;1442;47.448;8.582;2023-03-23T12:05:26;3.35;;;1.98;;
2868;SDS011;1442;47.448;8.582;2023-03-23T12:07:56;3.80;;;1.85;;
2868;SDS011;1442;47.448;8.582;2023-03-23T12:10:28;3.95;;;2.17;;
2868;SDS011;1442;47.448;8.582;2023-03-23T12:12:59;6.43;;;1.77;;
2868;SDS011;1442;47.448;8.582;2023-03-23T12:15:29;6.95;;;1.67;;
2868;SDS011;1442;47.448;8.582;2023-03-23T12:18:00;2.97;;;1.60;;
2868;SDS011;1442;47.448;8.582;2023-03-23T12:20:31;3.58;;;1.40;;
2868;SDS011;1442;47.448;8.582;2023-03-23T12:23:02;2.30;;;1.60;;
2868;SDS011;1442;47.448;8.582;2023-03-23T12:25:41;2.20;;;1.50;;
2868;SDS011;1442;47.448;8.582;2023-03-23T12:28:12;1.80;;;1.42;;
2868;SDS011;1442;47.448;8.582;2023-03-23T12:30:42;4.05;;;1.48;;
2868;SDS011;1442;47.448;8.582;2023-03-23T12:33:13;2.10;;;1.50;;
2868;SDS011;1442;47.448;8.582;2023-03-23T12:35:49;3.40;;;1.83;;
2868;SDS011;1442;47.448;8.582;2023-03-23T12:38:25;2.45;;;1.70;;
2868;SDS011;1442;47.448;8.582;2023-03-23T12:40:57;2.30;;;1.48;;
2868;SDS011;1442;47.448;8.582;2023-03-23T12:43:28;3.38;;;2.00;;
2868;SDS011;1442;47.448;8.582;2023-03-23T12:46:01;4.57;;;2.00;;
2868;SDS011;1442;47.448;8.582;2023-03-23T12:48:32;3.65;;;1.73;;
2868;SDS011;1442;47.448;8.582;2023-03-23T12:53:48;2.67;;;1.50;;
2868;SDS011;1442;47.448;8.582;2023-03-23T12:56:19;1.77;;;1.23;;
2868;SDS011;1442;47.448;8.582;2023-03-23T12:58:49;3.15;;;1.50;;
2868;SDS011;1442;47.448;8.582;2023-03-23T13:01:17;2.03;;;1.60;;
2868;SDS011;1442;47.448;8.582;2023-03-23T13:03:48;2.55;;;1.50;;
2868;SDS011;1442;47.448;8.582;2023-03-23T13:06:19;2.53;;;1.70;;
2868;SDS011;1442;47.448;8.582;2023-03-23T13:08:49;1.50;;;1.27;;
2868;SDS011;1442;47.448;8.582;2023-03-23T13:11:20;3.22;;;1.70;;
2868;SDS011;1442;47.448;8.582;2023-03-23T13:13:49;2.08;;;1.45;;
2868;SDS011;1442;47.448;8.582;2023-03-23T13:16:21;2.50;;;1.40;;
2868;SDS011;1442;47.448;8.582;2023-03-23T13:18:54;3.15;;;1.40;;
2868;SDS011;1442;47.448;8.582;2023-03-23T13:21:24;3.75;;;1.73;;
2868;SDS011;1442;47.448;8.582;2023-03-23T13:23:56;2.20;;;1.60;;
2868;SDS011;1442;47.448;8.582;2023-03-23T13:26:23;2.15;;;1.60;;
2868;SDS011;1442;47.448;8.582;2023-03-23T13:28:55;5.07;;;1.65;;
2868;SDS011;1442;47.448;8.582;2023-03-23T13:31:23;5.28;;;1.52;;
2868;SDS011;1442;47.448;8.582;2023-03-23T13:33:51;3.67;;;1.52;;
2868;SDS011;1442;47.448;8.582;2023-03-23T13:36:24;3.90;;;1.70;;
2868;SDS011;1442;47.448;8.582;2023-03-23T13:38:52;4.07;;;1.45;;
2868;SDS011;1442;47.448;8.582;2023-03-23T13:41:20;2.97;;;1.50;;
2868;SDS011;1442;47.448;8.582;2023-03-23T13:43:48;4.18;;;1.52;;
2868;SDS011;1442;47.448;8.582;2023-03-23T13:46:24;2.20;;;1.55;;
2868;SDS011;1442;47.448;8.582;2023-03-23T13:49:04;2.80;;;1.63;;
2868;SDS011;1442;47.448;8.582;2023-03-23T13:51:34;5.68;;;2.15;;
2868;SDS011;1442;47.448;8.582;2023-03-23T13:54:14;3.58;;;1.50;;
2868;SDS011;1442;47.448;8.582;2023-03-23T13:56:47;2.97;;;1.90;;
2868;SDS011;1442;47.448;8.582;2023-03-23T13:59:15;3.67;;;1.65;;
2868;SDS011;1442;47.448;8.582;2023-03-23T14:01:43;1.55;;;1.40;;
2868;SDS011;1442;47.448;8.582;2023-03-23T14:04:11;1.88;;;1.65;;
2868;SDS011;1442;47.448;8.582;2023-03-23T14:06:40;2.78;;;1.40;;
2868;SDS011;1442;47.448;8.582;2023-03-23T14:09:10;2.25;;;1.63;;
2868;SDS011;1442;47.448;8.582;2023-03-23T14:11:46;2.50;;;1.65;;
2868;SDS011;1442;47.448;8.582;2023-03-23T14:14:17;2.50;;;1.73;;
2868;SDS011;1442;47.448;8.582;2023-03-23T14:16:48;3.30;;;1.65;;
2868;SDS011;1442;47.448;8.582;2023-03-23T14:19:17;5.35;;;1.80;;
2868;SDS011;1442;47.448;8.582;2023-03-23T14:21:52;3.83;;;1.58;;
2868;SDS011;1442;47.448;8.582;2023-03-23T14:24:21;4.72;;;1.60;;
2868;SDS011;1442;47.448;8.582;2023-03-23T14:26:51;5.60;;;1.60;;
2868;SDS011;1442;47.448;8.582;2023-03-23T14:29:19;3.17;;;1.90;;
2868;SDS011;1442;47.448;8.582;2023-03-23T14:31:50;2.63;;;2.08;;
2868;SDS011;1442;47.448;8.582;2023-03-23T14:34:18;4.57;;;1.70;;
2868;SDS011;1442;47.448;8.582;2023-03-23T14:36:46;4.45;;;1.83;;
2868;SDS011;1442;47.448;8.582;2023-03-23T14:39:17;3.35;;;1.35;;
2868;SDS011;1442;47.448;8.582;2023-03-23T14:41:44;3.10;;;1.60;;
2868;SDS011;1442;47.448;8.582;2023-03-23T14:44:14;2.33;;;1.33;;
2868;SDS011;1442;47.448;8.582;2023-03-23T14:46:42;5.32;;;1.50;;
2868;SDS011;1442;47.448;8.582;2023-03-23T14:49:10;5.45;;;1.73;;
2868;SDS011;1442;47.448;8.582;2023-03-23T14:51:46;2.20;;;1.30;;
2868;SDS011;1442;47.448;8.582;2023-03-23T14:54:13;2.28;;;1.80;;
2868;SDS011;1442;47.448;8.582;2023-03-23T14:56:41;6.00;;;1.70;;
2868;SDS011;1442;47.448;8.582;2023-03-23T14:59:09;2.58;;;1.50;;
2868;SDS011;1442;47.448;8.582;2023-03-23T15:01:38;3.08;;;1.50;;
2868;SDS011;1442;47.448;8.582;2023-03-23T15:04:09;3.88;;;1.70;;
2868;SDS011;1442;47.448;8.582;2023-03-23T15:06:38;1.85;;;1.55;;
2868;SDS011;1442;47.448;8.582;2023-03-23T15:09:09;1.35;;;1.00;;
2868;SDS011;1442;47.448;8.582;2023-03-23T15:11:39;2.38;;;1.63;;
2868;SDS011;1442;47.448;8.582;2023-03-23T15:14:09;1.65;;;1.48;;
2868;SDS011;1442;47.448;8.582;2023-03-23T15:16:38;2.45;;;1.48;;
2868;SDS011;1442;47.448;8.582;2023-03-23T15:19:11;3.05;;;1.85;;
2868;SDS011;1442;47.448;8.582;2023-03-23T15:21:45;4.53;;;1.77;;
2868;SDS011;1442;47.448;8.582;2023-03-23T15:24:20;8.40;;;2.72;;
2868;SDS011;1442;47.448;8.582;2023-03-23T15:26:48;4.10;;;2.63;;
2868;SDS011;1442;47.448;8.582;2023-03-23T15:29:16;3.28;;;2.00;;
2868;SDS011;1442;47.448;8.582;2023-03-23T15:31:45;2.78;;;1.55;;
2868;SDS011;1442;47.448;8.582;2023-03-23T15:34:15;5.30;;;2.22;;